Domov               UVHVVR             MKGP            O straneh              
ZDRAVSTVENO VARSTVO RASTLIN
  MREŽA AGROMET. POSTAJ
 ► PROGNOSTIČNA OBVESTILA
AGROMETEOROLOŠKI PODATKI -
ARSO
OBVLADOVANJE TVEGANJ ZARADI
NEUGODNIH VREMENSKIH RAZMER
  ► NARAVNE NESREČE
  ► SUŠA/MOČA
  ► NAMAKANJE
  ► ŽLED (gozdarstvo)
KARTOGRAFSKI PRIKAZI
SPLETNE POVEZAVE
PROJEKTI IN PUBLIKACIJE

AGROMETEOROLOŠKA MREŽA: VREMENSKE POSTAJE IN FENOLOŠKA OPAZOVANJA

Pregled podatkov za lokacijo Čelje, meteorološka postaja 37797

Pregled senzorjev na lokaciji

ID Ime Zadnja
vrednost
Datum
zadnje
spremembe
Tip
senzorja
1812 Padavine (mm) 0 mm 23.7.2018 05:30 Rain-O-Matic
1814 Relativna vlaga 2 m (% RH) 74,48 % RH 23.7.2018 05:30 50YA
1813 Temperatura 2 m (°C) 16,36 °C 23.7.2018 05:30 50YA

Pregled podatkov zadnjih 24 ur

Zap.
št.
Datum in čas Čelje
Padavine Relativna
vlaga
2
m
Temperatura
2
m
1 23.7.2018 06:00
2 23.7.2018 05:30
3 23.7.2018 05:00
4 23.7.2018 04:30 0 74,5 16,4
5 23.7.2018 04:00 0 72,5 16,6
6 23.7.2018 03:30 0 73 16,6
7 23.7.2018 03:00 0 74,7 16,2
8 23.7.2018 02:30 0 79 16
9 23.7.2018 02:00 0 80,2 16,3
10 23.7.2018 01:30 0 79,9 16,8
11 23.7.2018 01:00 0 78,9 17,3
12 23.7.2018 00:30 0 78,6 17,4
13 23.7.2018 00:00 0 77,9 17,5
14 22.7.2018 23:30 0 80,2 17,2
15 22.7.2018 23:00 0 81,5 17
16 22.7.2018 22:30 0 81,7 16,9
17 22.7.2018 22:00 0 80,8 17
18 22.7.2018 21:30 0 82,8 16,8
19 22.7.2018 21:00 0 85,9 16,9
20 22.7.2018 20:30 0 84,3 17
21 22.7.2018 20:00 0 82,3 17,4
22 22.7.2018 19:30 0 82,4 18
23 22.7.2018 19:00 0 83,6 18,7
24 22.7.2018 18:30 0 79,5 19,8
25 22.7.2018 18:00 0 75,3 20,8
26 22.7.2018 17:30 0 78,9 21,3
27 22.7.2018 17:00 0 73,4 22,8
28 22.7.2018 16:30 0 68,8 24,1
29 22.7.2018 16:00 0 68,9 23,8
30 22.7.2018 15:30 0 70,1 23,7
31 22.7.2018 15:00 0 70,2 24,2
32 22.7.2018 14:30 0 76,9 22,6
33 22.7.2018 14:00 0 88,5 19,8
34 22.7.2018 13:30 0 88,4 19,7
35 22.7.2018 13:00 0 88,1 20,4
36 22.7.2018 12:30 0,2 89,6 19,4
37 22.7.2018 12:00 0,4 88,7 18,7
38 22.7.2018 11:30 0,2 83,2 20,3
39 22.7.2018 11:00 0 80 21,7
40 22.7.2018 10:30 0 69,7 23,5
41 22.7.2018 10:00 0 66,4 25
42 22.7.2018 09:30 0 66,9 24,5
43 22.7.2018 09:00 0 71,2 24
44 22.7.2018 08:30 0 79 22,7
45 22.7.2018 08:00 0 84,2 20,9
46 22.7.2018 07:30 0 95,1 18,8
47 22.7.2018 07:00 0 98,5 17,6
48 22.7.2018 06:30 0 98,4 17,1
© 2011 Ministrstvo za kmetijstvo, gozdarstvo in prehrano. Vse pravice pridržane.